Doebay, Washington
Current Conditions -  °F | °C
As of 2:35 PM on Wednesday 28 Jan 2015 (Local Time) from KORS Reporting Station
Clear Clear  
Wind Chill: 48°   Ceiling: Unl
Heat Index: 48°   Visibility: 9mi
Dew Point: 46°   Wind: 0mph
Humidity: 93%   Direction: NA
Pressure: 30.37"   Gusts: NA
Location:  48.6597°N, 122.828°W
Report Text: KORS 282235Z AUTO 00000KT 9SM CLR 09/08 A3037 RMK AO2
Loading
Personal Weather Stations






























Interactive Weather Map New forecast layout! Learn more

10-Day Weather Forecast

Advertisements
Track Severe Weather on mobile